createdAt,value
2022-08-23T00:01:35.142Z,99.90
2022-08-23T00:04:09.185Z,99.90
2022-08-23T00:06:39.659Z,99.90
2022-08-23T00:09:06.453Z,99.90
2022-08-23T00:12:05.203Z,99.90
2022-08-23T00:14:34.578Z,99.90
2022-08-23T00:17:07.263Z,99.90
2022-08-23T00:19:34.143Z,99.90
2022-08-23T00:22:06.217Z,99.90
2022-08-23T00:24:40.852Z,99.90
2022-08-23T00:27:16.661Z,99.90
2022-08-23T00:29:45.802Z,99.90
2022-08-23T00:32:18.529Z,99.90
2022-08-23T00:34:47.956Z,99.90
2022-08-23T00:37:15.703Z,99.90
2022-08-23T00:39:43.357Z,99.90
2022-08-23T00:43:07.406Z,99.90
2022-08-23T00:46:05.566Z,99.90
2022-08-23T00:48:33.417Z,99.90
2022-08-23T00:51:27.673Z,99.90
2022-08-23T00:53:59.150Z,99.90
2022-08-23T00:56:31.592Z,99.90
2022-08-23T00:58:59.982Z,99.90
2022-08-23T01:01:27.447Z,99.90
2022-08-23T01:04:05.098Z,99.90
2022-08-23T01:06:50.573Z,99.90
2022-08-23T01:09:21.173Z,99.90
2022-08-23T01:11:57.303Z,99.90
2022-08-23T01:14:33.928Z,99.90
2022-08-23T01:17:15.280Z,99.90
2022-08-23T01:19:55.456Z,99.90
2022-08-23T01:22:49.816Z,99.90
2022-08-23T01:25:23.993Z,99.90
2022-08-23T01:27:53.859Z,99.90
2022-08-23T01:30:26.393Z,99.90
2022-08-23T01:32:58.374Z,99.90
2022-08-23T01:35:35.780Z,99.90
2022-08-23T01:38:03.772Z,99.90
2022-08-23T01:40:31.872Z,99.90
2022-08-23T01:43:00.291Z,99.90
2022-08-23T01:45:27.861Z,99.90
2022-08-23T01:47:54.953Z,99.90
2022-08-23T01:50:24.468Z,99.90
2022-08-23T01:52:52.264Z,99.90
2022-08-23T01:55:24.545Z,99.90
2022-08-23T01:57:57.415Z,99.90
2022-08-23T02:00:28.610Z,99.90
2022-08-23T02:02:55.839Z,99.90
2022-08-23T02:05:22.843Z,99.90
2022-08-23T02:07:49.934Z,99.90
2022-08-23T02:10:18.918Z,99.90
2022-08-23T02:12:47.486Z,99.90
2022-08-23T02:15:17.979Z,99.90
2022-08-23T02:17:47.472Z,99.90
2022-08-23T02:20:14.717Z,99.90
2022-08-23T02:22:42.178Z,99.90
2022-08-23T02:25:09.462Z,99.90
2022-08-23T02:27:36.587Z,99.90
2022-08-23T02:30:04.981Z,99.90
2022-08-23T02:32:33.345Z,99.90
2022-08-23T02:35:04.854Z,99.90
2022-08-23T02:37:35.347Z,99.90
2022-08-23T02:40:03.453Z,99.90
2022-08-23T02:42:31.316Z,99.90
2022-08-23T02:44:59.634Z,99.90
2022-08-23T02:47:27.382Z,99.90
2022-08-23T02:50:13.059Z,99.90
2022-08-23T02:52:40.206Z,99.90
2022-08-23T02:55:07.693Z,99.90
2022-08-23T02:57:35.101Z,99.90
2022-08-23T03:00:05.717Z,99.90
2022-08-23T03:02:32.709Z,99.90
2022-08-23T03:04:59.665Z,99.90
2022-08-23T03:07:31.268Z,99.90
2022-08-23T03:09:58.996Z,99.90
2022-08-23T03:12:27.335Z,99.90
2022-08-23T03:14:56.625Z,99.90
2022-08-23T03:17:24.593Z,99.90
2022-08-23T03:19:57.250Z,99.90
2022-08-23T03:22:24.918Z,99.90
2022-08-23T03:24:53.113Z,99.90
2022-08-23T03:27:23.695Z,99.90
2022-08-23T03:29:53.916Z,99.90
2022-08-23T03:32:21.419Z,99.90
2022-08-23T03:34:53.582Z,99.90
2022-08-23T03:37:20.636Z,99.90
2022-08-23T03:39:47.790Z,99.90
2022-08-23T03:42:15.227Z,99.90
2022-08-23T03:44:42.130Z,99.90
2022-08-23T03:47:09.093Z,99.90
2022-08-23T03:49:37.648Z,99.90
2022-08-23T03:52:08.203Z,99.90
2022-08-23T03:54:36.384Z,99.90
2022-08-23T03:57:07.213Z,99.90
2022-08-23T03:59:37.161Z,99.90
2022-08-23T04:02:08.595Z,99.90
2022-08-23T04:04:36.779Z,99.90
2022-08-23T04:07:27.869Z,99.90
2022-08-23T04:09:57.871Z,99.90
2022-08-23T04:12:30.928Z,99.90
2022-08-23T04:14:58.290Z,99.90
2022-08-23T04:17:25.533Z,99.90
2022-08-23T04:19:53.723Z,99.90
2022-08-23T04:22:21.433Z,99.90
2022-08-23T04:24:48.778Z,99.90
2022-08-23T04:27:16.370Z,99.90
2022-08-23T04:29:47.263Z,99.90
2022-08-23T04:32:15.412Z,99.90
2022-08-23T04:34:54.388Z,99.90
2022-08-23T04:37:21.340Z,99.90
2022-08-23T04:40:07.182Z,99.90
2022-08-23T04:42:41.005Z,99.90
2022-08-23T04:45:08.334Z,99.90
2022-08-23T04:47:40.264Z,99.90
2022-08-23T04:50:09.035Z,99.90
2022-08-23T04:52:36.144Z,99.90
2022-08-23T04:55:04.661Z,99.90
2022-08-23T04:57:44.780Z,99.90
2022-08-23T05:00:16.781Z,99.90
2022-08-23T05:02:51.051Z,99.90
2022-08-23T05:05:18.982Z,99.90
2022-08-23T05:07:47.014Z,99.90
2022-08-23T05:10:16.156Z,99.90
2022-08-23T05:12:48.704Z,99.90
2022-08-23T05:15:17.771Z,99.90
2022-08-23T05:17:48.048Z,99.90
2022-08-23T05:20:16.546Z,99.90
2022-08-23T05:22:44.118Z,99.90
2022-08-23T05:25:49.300Z,99.90
2022-08-23T05:28:29.858Z,99.90
2022-08-23T05:31:11.498Z,99.90
2022-08-23T05:33:47.822Z,99.90
2022-08-23T05:36:20.194Z,99.90
2022-08-23T05:38:47.267Z,99.90
2022-08-23T05:41:15.604Z,99.90
2022-08-23T05:43:45.836Z,99.90
2022-08-23T05:46:21.161Z,99.90
2022-08-23T05:49:12.438Z,99.90
2022-08-23T05:51:51.666Z,99.90
2022-08-23T05:54:22.252Z,99.90
2022-08-23T05:57:04.549Z,99.90
2022-08-23T05:59:31.757Z,99.90
2022-08-23T06:02:01.735Z,99.90
2022-08-23T06:04:28.883Z,99.90
2022-08-23T06:06:59.213Z,99.90
2022-08-23T06:09:26.633Z,99.90
2022-08-23T06:11:54.035Z,99.90
2022-08-23T06:14:21.157Z,99.90
2022-08-23T06:16:54.969Z,99.90
2022-08-23T06:19:24.879Z,99.90
2022-08-23T06:22:10.275Z,99.90
2022-08-23T06:24:40.833Z,99.90
2022-08-23T06:27:12.819Z,99.90
2022-08-23T06:29:46.213Z,99.90
2022-08-23T06:32:42.772Z,99.90
2022-08-23T06:35:38.897Z,99.90
2022-08-23T06:38:21.746Z,99.90
2022-08-23T06:41:09.003Z,99.90
2022-08-23T06:43:50.489Z,99.90
2022-08-23T06:46:28.274Z,99.90
2022-08-23T06:48:58.224Z,99.90
2022-08-23T06:51:29.133Z,99.90
2022-08-23T06:54:14.654Z,99.90
2022-08-23T06:57:01.068Z,99.90
2022-08-23T06:59:31.258Z,99.90
2022-08-23T07:02:07.946Z,99.90
2022-08-23T07:04:58.276Z,99.90
2022-08-23T07:07:57.578Z,99.90
2022-08-23T07:10:24.522Z,99.90
2022-08-23T07:12:51.751Z,99.90
2022-08-23T07:15:21.219Z,99.90
2022-08-23T07:17:49.353Z,99.90
2022-08-23T07:20:19.242Z,99.90
2022-08-23T07:22:49.523Z,99.90
2022-08-23T07:25:18.187Z,99.90
2022-08-23T07:27:48.400Z,99.90
2022-08-23T07:30:17.236Z,99.90
2022-08-23T07:32:46.543Z,99.90
2022-08-23T07:35:38.158Z,99.90
2022-08-23T07:38:10.265Z,99.90
2022-08-23T07:40:39.397Z,99.90
2022-08-23T07:43:07.927Z,99.90
2022-08-23T07:45:37.235Z,99.90
2022-08-23T07:48:05.361Z,99.90
2022-08-23T07:50:54.610Z,99.90
2022-08-23T07:53:37.852Z,99.90
2022-08-23T07:56:08.866Z,99.90
2022-08-23T07:58:54.087Z,99.90
2022-08-23T08:01:48.473Z,99.90
2022-08-23T08:04:15.929Z,99.90
2022-08-23T08:06:59.812Z,99.90
2022-08-23T08:09:33.301Z,99.90
2022-08-23T08:12:00.531Z,99.90
2022-08-23T08:14:30.466Z,99.90
2022-08-23T08:17:00.490Z,99.90
2022-08-23T08:19:46.365Z,99.90
2022-08-23T08:22:32.237Z,99.90
2022-08-23T08:25:25.328Z,99.90
2022-08-23T08:27:54.051Z,99.90
2022-08-23T08:30:21.058Z,99.90
2022-08-23T08:32:51.348Z,99.90
2022-08-23T08:35:20.514Z,99.90
2022-08-23T08:37:47.436Z,99.90
2022-08-23T08:40:20.582Z,99.90
2022-08-23T08:43:05.792Z,99.90
2022-08-23T08:45:58.927Z,99.90
2022-08-23T08:48:30.074Z,99.90
2022-08-23T08:51:03.608Z,99.90
2022-08-23T08:53:43.765Z,99.90
2022-08-23T08:56:53.639Z,99.90
2022-08-23T08:59:30.944Z,99.90
2022-08-23T09:01:59.304Z,99.90
2022-08-23T09:04:34.733Z,99.90
2022-08-23T09:07:25.911Z,99.90
2022-08-23T09:10:09.187Z,99.90
2022-08-23T09:12:42.618Z,99.90
2022-08-23T09:15:29.778Z,99.90
2022-08-23T09:18:03.719Z,99.90
2022-08-23T09:20:33.368Z,99.90
2022-08-23T09:23:07.771Z,99.90
2022-08-23T09:25:40.101Z,99.90
2022-08-23T09:28:15.092Z,99.90
2022-08-23T09:30:49.285Z,99.90
2022-08-23T09:33:26.314Z,99.90
2022-08-23T09:36:16.413Z,99.90
2022-08-23T09:38:55.212Z,99.90
2022-08-23T09:41:39.317Z,99.90
2022-08-23T09:44:13.448Z,99.90
2022-08-23T09:46:42.878Z,99.90
2022-08-23T09:49:30.719Z,99.90
2022-08-23T09:52:33.734Z,99.90
2022-08-23T09:55:08.607Z,99.90
2022-08-23T09:57:40.741Z,99.90
2022-08-23T10:00:07.836Z,99.90
2022-08-23T10:02:39.637Z,99.90
2022-08-23T10:05:29.199Z,99.90
2022-08-23T10:08:01.603Z,99.90
2022-08-23T10:10:50.958Z,99.90
2022-08-23T10:13:26.368Z,99.90
2022-08-23T10:16:22.317Z,99.90
2022-08-23T10:19:43.615Z,99.90
2022-08-23T10:22:19.647Z,99.90
2022-08-23T10:25:47.131Z,99.90
2022-08-23T10:28:51.391Z,99.00
2022-08-23T10:31:34.139Z,98.30
2022-08-23T10:34:38.670Z,98.40
2022-08-23T10:37:34.592Z,98.30
2022-08-23T10:40:24.579Z,98.70
2022-08-23T10:42:57.084Z,98.30
2022-08-23T10:45:31.722Z,98.20
2022-08-23T10:48:30.412Z,97.10
2022-08-23T10:50:59.980Z,97.50
2022-08-23T10:53:46.612Z,97.20
2022-08-23T10:56:21.961Z,96.50
2022-08-23T10:59:00.914Z,96.20
2022-08-23T11:01:31.115Z,96.70
2022-08-23T11:04:34.905Z,95.80
2022-08-23T11:07:43.007Z,97.40
2022-08-23T11:10:25.276Z,95.90
2022-08-23T11:13:19.608Z,95.20
2022-08-23T11:16:03.382Z,95.20
2022-08-23T11:18:41.089Z,93.90
2022-08-23T11:21:17.339Z,94.80
2022-08-23T11:23:59.398Z,94.90
2022-08-23T11:26:32.844Z,93.00
2022-08-23T11:29:11.526Z,92.50
2022-08-23T11:31:49.828Z,93.00
2022-08-23T11:34:30.515Z,93.10
2022-08-23T11:37:20.953Z,92.70
2022-08-23T11:40:01.707Z,92.90
2022-08-23T11:42:37.381Z,93.20
2022-08-23T11:45:20.826Z,93.20
2022-08-23T11:48:03.995Z,92.30
2022-08-23T11:50:43.298Z,91.90
2022-08-23T11:53:41.120Z,90.70
2022-08-23T11:56:28.506Z,88.50
2022-08-23T11:59:20.348Z,88.70
2022-08-23T12:01:47.459Z,85.20
2022-08-23T12:04:35.569Z,85.90
2022-08-23T12:07:05.699Z,85.30
2022-08-23T12:09:32.709Z,84.10
2022-08-23T12:12:01.121Z,85.20
2022-08-23T12:14:50.856Z,87.40
2022-08-23T12:17:40.305Z,87.20
2022-08-23T12:20:11.314Z,86.90
2022-08-23T12:23:05.828Z,84.50
2022-08-23T12:25:33.721Z,84.00
2022-08-23T12:28:22.491Z,83.60
2022-08-23T12:31:07.943Z,82.30
2022-08-23T12:33:49.326Z,79.70
2022-08-23T12:36:38.274Z,76.30
2022-08-23T12:39:08.925Z,72.90
2022-08-23T12:41:56.005Z,72.50
2022-08-23T12:44:26.598Z,75.40
2022-08-23T12:46:55.370Z,73.10
2022-08-23T12:49:32.455Z,72.20
2022-08-23T12:52:02.903Z,72.20
2022-08-23T12:54:46.434Z,71.70
2022-08-23T12:57:20.234Z,70.20
2022-08-23T13:00:16.615Z,66.90
2022-08-23T13:03:25.344Z,63.10
2022-08-23T13:06:02.643Z,63.30
2022-08-23T13:08:38.550Z,61.70
2022-08-23T13:11:08.604Z,59.30
2022-08-23T13:13:38.824Z,61.20
2022-08-23T13:16:33.624Z,62.30
2022-08-23T13:19:27.046Z,60.50
2022-08-23T13:22:19.410Z,57.90
2022-08-23T13:25:24.639Z,56.40
2022-08-23T13:27:46.940Z,54.80
2022-08-23T13:30:16.947Z,55.30
2022-08-23T13:32:47.148Z,56.90
2022-08-23T13:35:26.979Z,54.80
2022-08-23T13:37:58.194Z,53.60
2022-08-23T13:40:33.320Z,52.40
2022-08-23T13:43:05.245Z,52.70
2022-08-23T13:45:43.704Z,53.80
2022-08-23T13:48:21.042Z,54.40
2022-08-23T13:50:51.778Z,56.80
2022-08-23T13:53:19.894Z,57.30
2022-08-23T13:55:53.858Z,59.90
2022-08-23T13:58:32.571Z,59.60
2022-08-23T14:01:01.463Z,61.60
2022-08-23T14:03:31.414Z,63.10
2022-08-23T14:05:58.389Z,63.60
2022-08-23T14:08:25.385Z,64.80
2022-08-23T14:10:52.665Z,66.10
2022-08-23T14:13:24.403Z,63.50
2022-08-23T14:15:56.366Z,65.00
